Dallas, Texas
Traffic Map
Current Weather Conditions
Dallas, Texas
Clear
Clear
22°
Feels Like: 22°
Wind Chill: 22° Ceiling: Unl
Heat Index: 22° Visibility: 10mi
Dew Point: -1° Wind: 7mph
Humidity: 23% Direction: 210° (SSW)
Pressure: 30.08in Gusts: 0mph
Raw Report DataKDAL 102353Z 21006KT 10SM CLR 22/M01 A3008 RMK AO2 SLP182 T02171006 10228 20144 56024
Traffic Incident Summary
Active as of:
Severity:
Category:
InformationThere was an issue retrieving the traffic information for this location. Please try a different location or try again shortly.
Advertisements
Track Severe Weather on mobile